ESMK/KID METAR and TAF weather

Enter ICAO airport designator
Station Type Date Time Source
ESMK METAR 2021/05/10 00:50 UTC NOAA

ESMK 100050Z AUTO 14003KT 9999 NCD 11/07 Q1005


Station Type Date Time Source
ESMK Decoded METAR 2021/05/10 00:50 UTC NOAA

Kristianstad / Everod, Sweden (ESMK) 55-55N 014-05E
May 09, 2021 - 08:50 PM EDT / 2021.05.10 0050 UTC
Wind: from the SE (140 degrees) at 3 MPH (3 KT):0
Visibility: greater than 7 mile(s):0
Temperature: 51 F (11 C)
Dew Point: 44 F (7 C)
Relative Humidity: 76%
Pressure (altimeter): 29.68 in. Hg (1005 hPa)
ob: ESMK 100050Z AUTO 14003KT 9999 NCD 11/07 Q1005
cycle: 1

Station Type Date Time Source
ESMK TAF 2020/07/19 09:57 UTC NOAA

TAF TAF ESMK 190930Z 1909/1921 13008KT CAVOK PROB40 1910/1919 SCT030TCU

Example: see airport list